sensor_id;sensor_type;location;lat;lon;timestamp;pressure;altitude;pressure_sealevel;temperature;humidity
74680;BME280;63211;48.548;2.704;2023-07-08T00:01:56;100479.94;;;23.82;53.70
74680;BME280;63211;48.548;2.704;2023-07-08T00:04:24;100485.44;;;23.82;53.90
74680;BME280;63211;48.548;2.704;2023-07-08T00:06:51;100490.94;;;23.82;53.71
74680;BME280;63211;48.548;2.704;2023-07-08T00:09:17;100477.97;;;23.73;54.02
74680;BME280;63211;48.548;2.704;2023-07-08T00:11:44;100484.06;;;23.80;54.04
74680;BME280;63211;48.548;2.704;2023-07-08T00:14:11;100466.13;;;23.67;53.77
74680;BME280;63211;48.548;2.704;2023-07-08T00:16:37;100496.97;;;23.79;53.81
74680;BME280;63211;48.548;2.704;2023-07-08T00:19:08;100492.31;;;23.80;53.66
74680;BME280;63211;48.548;2.704;2023-07-08T00:21:36;100493.66;;;23.77;54.04
74680;BME280;63211;48.548;2.704;2023-07-08T00:24:03;100503.56;;;23.78;54.09
74680;BME280;63211;48.548;2.704;2023-07-08T00:26:30;100510.16;;;23.77;53.84
74680;BME280;63211;48.548;2.704;2023-07-08T00:28:57;100515.09;;;23.75;53.65
74680;BME280;63211;48.548;2.704;2023-07-08T00:31:24;100519.75;;;23.75;54.18
74680;BME280;63211;48.548;2.704;2023-07-08T00:33:52;100518.09;;;23.74;53.87
74680;BME280;63211;48.548;2.704;2023-07-08T00:36:21;100518.09;;;23.69;53.81
74680;BME280;63211;48.548;2.704;2023-07-08T00:38:50;100527.69;;;23.71;54.43
74680;BME280;63211;48.548;2.704;2023-07-08T00:41:21;100532.38;;;23.71;53.88
74680;BME280;63211;48.548;2.704;2023-07-08T00:43:51;100524.41;;;23.69;54.24
74680;BME280;63211;48.548;2.704;2023-07-08T00:46:28;100527.69;;;23.66;53.93
74680;BME280;63211;48.548;2.704;2023-07-08T00:49:01;100531.28;;;23.67;54.43
74680;BME280;63211;48.548;2.704;2023-07-08T00:51:30;100532.66;;;23.69;53.86
74680;BME280;63211;48.548;2.704;2023-07-08T00:53:58;100548.31;;;23.69;53.88
74680;BME280;63211;48.548;2.704;2023-07-08T00:56:30;100546.66;;;23.68;53.94
74680;BME280;63211;48.548;2.704;2023-07-08T00:59:01;100542.53;;;23.65;53.86
74680;BME280;63211;48.548;2.704;2023-07-08T01:01:31;100546.09;;;23.66;54.19
74680;BME280;63211;48.548;2.704;2023-07-08T01:04:03;100553.53;;;23.65;54.18
74680;BME280;63211;48.548;2.704;2023-07-08T01:06:33;100548.50;;;23.57;54.00
74680;BME280;63211;48.548;2.704;2023-07-08T01:09:08;100543.84;;;23.57;54.00
74680;BME280;63211;48.548;2.704;2023-07-08T01:11:37;100555.13;;;23.61;54.00
74680;BME280;63211;48.548;2.704;2023-07-08T01:14:06;100543.31;;;23.60;53.93
74680;BME280;63211;48.548;2.704;2023-07-08T01:16:35;100552.38;;;23.61;54.39
74680;BME280;63211;48.548;2.704;2023-07-08T01:19:02;100567.22;;;23.60;53.76
74680;BME280;63211;48.548;2.704;2023-07-08T01:21:33;100588.38;;;23.59;54.40
74680;BME280;63211;48.548;2.704;2023-07-08T01:24:03;100594.44;;;23.61;54.29
74680;BME280;63211;48.548;2.704;2023-07-08T01:26:31;100592.47;;;23.57;54.36
74680;BME280;63211;48.548;2.704;2023-07-08T01:28:59;100606.53;;;23.60;53.99
74680;BME280;63211;48.548;2.704;2023-07-08T01:31:26;100606.78;;;23.59;54.16
74680;BME280;63211;48.548;2.704;2023-07-08T01:33:53;100610.88;;;23.56;54.35
74680;BME280;63211;48.548;2.704;2023-07-08T01:36:20;100615.28;;;23.57;54.19
74680;BME280;63211;48.548;2.704;2023-07-08T01:38:47;100614.47;;;23.57;53.91
74680;BME280;63211;48.548;2.704;2023-07-08T01:41:16;100617.47;;;23.55;53.81
74680;BME280;63211;48.548;2.704;2023-07-08T01:43:43;100617.47;;;23.55;54.18
74680;BME280;63211;48.548;2.704;2023-07-08T01:46:16;100619.66;;;23.53;53.80
74680;BME280;63211;48.548;2.704;2023-07-08T01:48:46;100630.03;;;23.51;54.21
74680;BME280;63211;48.548;2.704;2023-07-08T01:51:13;100620.31;;;23.39;54.24
74680;BME280;63211;48.548;2.704;2023-07-08T01:53:42;100653.72;;;23.52;54.00
74680;BME280;63211;48.548;2.704;2023-07-08T01:56:10;100645.69;;;23.51;54.29
74680;BME280;63211;48.548;2.704;2023-07-08T01:58:39;100639.16;;;23.52;54.36
74680;BME280;63211;48.548;2.704;2023-07-08T02:01:06;100637.44;;;23.51;54.21
74680;BME280;63211;48.548;2.704;2023-07-08T02:03:33;100652.03;;;23.51;54.37
74680;BME280;63211;48.548;2.704;2023-07-08T02:06:01;100647.13;;;23.53;54.20
74680;BME280;63211;48.548;2.704;2023-07-08T02:08:27;100638.28;;;23.51;54.23
74680;BME280;63211;48.548;2.704;2023-07-08T02:10:55;100647.97;;;23.54;54.07
74680;BME280;63211;48.548;2.704;2023-07-08T02:13:22;100659.22;;;23.52;53.91
74680;BME280;63211;48.548;2.704;2023-07-08T02:15:51;100651.19;;;23.51;53.92
74680;BME280;63211;48.548;2.704;2023-07-08T02:18:18;100663.63;;;23.53;54.22
74680;BME280;63211;48.548;2.704;2023-07-08T02:20:45;100645.41;;;23.47;53.87
74680;BME280;63211;48.548;2.704;2023-07-08T02:23:11;100652.88;;;23.52;53.83
74680;BME280;63211;48.548;2.704;2023-07-08T02:25:38;100648.72;;;23.49;54.44
74680;BME280;63211;48.548;2.704;2023-07-08T02:28:04;100652.56;;;23.48;53.96
74680;BME280;63211;48.548;2.704;2023-07-08T02:30:31;100642.13;;;23.50;54.29
74680;BME280;63211;48.548;2.704;2023-07-08T02:32:59;100652.00;;;23.46;54.38
74680;BME280;63211;48.548;2.704;2023-07-08T02:35:28;100645.94;;;23.44;54.04
74680;BME280;63211;48.548;2.704;2023-07-08T02:37:55;100651.75;;;23.48;54.54
74680;BME280;63211;48.548;2.704;2023-07-08T02:40:23;100654.50;;;23.48;53.95
74680;BME280;63211;48.548;2.704;2023-07-08T02:42:50;100657.50;;;23.46;54.60
74680;BME280;63211;48.548;2.704;2023-07-08T02:45:17;100653.91;;;23.46;54.46
74680;BME280;63211;48.548;2.704;2023-07-08T02:47:44;100650.91;;;23.47;54.15
74680;BME280;63211;48.548;2.704;2023-07-08T02:50:12;100642.94;;;23.46;53.95
74680;BME280;63211;48.548;2.704;2023-07-08T02:52:39;100644.31;;;23.48;53.80
74680;BME280;63211;48.548;2.704;2023-07-08T02:55:06;100641.59;;;23.48;54.03
74680;BME280;63211;48.548;2.704;2023-07-08T02:57:33;100632.75;;;23.46;53.78
74680;BME280;63211;48.548;2.704;2023-07-08T03:00:00;100630.03;;;23.46;54.38
74680;BME280;63211;48.548;2.704;2023-07-08T03:02:27;100622.88;;;23.45;53.94
74680;BME280;63211;48.548;2.704;2023-07-08T03:04:53;100620.38;;;23.44;54.46
74680;BME280;63211;48.548;2.704;2023-07-08T03:07:25;100609.13;;;23.45;54.25
74680;BME280;63211;48.548;2.704;2023-07-08T03:09:52;100601.41;;;23.42;53.96
74680;BME280;63211;48.548;2.704;2023-07-08T03:12:18;100587.91;;;23.41;53.91
74680;BME280;63211;48.548;2.704;2023-07-08T03:14:45;100589.59;;;23.42;54.37
74680;BME280;63211;48.548;2.704;2023-07-08T03:17:11;100582.69;;;23.39;53.95
74680;BME280;63211;48.548;2.704;2023-07-08T03:19:38;100575.00;;;23.41;54.38
74680;BME280;63211;48.548;2.704;2023-07-08T03:22:05;100568.13;;;23.39;54.14
74680;BME280;63211;48.548;2.704;2023-07-08T03:24:35;100557.97;;;23.39;54.07
74680;BME280;63211;48.548;2.704;2023-07-08T03:27:01;100537.53;;;23.25;54.04
74680;BME280;63211;48.548;2.704;2023-07-08T03:29:30;100554.13;;;23.40;53.97
74680;BME280;63211;48.548;2.704;2023-07-08T03:31:57;100563.44;;;23.39;53.90
74680;BME280;63211;48.548;2.704;2023-07-08T03:34:23;100549.16;;;23.37;54.26
74680;BME280;63211;48.548;2.704;2023-07-08T03:36:50;100537.59;;;23.35;54.15
74680;BME280;63211;48.548;2.704;2023-07-08T03:39:20;100527.75;;;23.39;54.03
74680;BME280;63211;48.548;2.704;2023-07-08T03:41:49;100515.88;;;23.34;54.33
74680;BME280;63211;48.548;2.704;2023-07-08T03:44:17;100514.22;;;23.33;54.01
74680;BME280;63211;48.548;2.704;2023-07-08T03:46:44;100516.69;;;23.34;54.75
74680;BME280;63211;48.548;2.704;2023-07-08T03:49:11;100509.28;;;23.35;54.29
74680;BME280;63211;48.548;2.704;2023-07-08T03:51:39;100490.88;;;23.35;54.30
74680;BME280;63211;48.548;2.704;2023-07-08T03:54:11;100479.06;;;23.35;54.24
74680;BME280;63211;48.548;2.704;2023-07-08T03:56:38;100484.25;;;23.31;54.04
74680;BME280;63211;48.548;2.704;2023-07-08T03:59:06;100482.91;;;23.34;54.48
74680;BME280;63211;48.548;2.704;2023-07-08T04:01:33;100469.44;;;23.32;54.32
74680;BME280;63211;48.548;2.704;2023-07-08T04:03:59;100470.25;;;23.33;54.37
74680;BME280;63211;48.548;2.704;2023-07-08T04:06:26;100457.88;;;23.30;54.38
74680;BME280;63211;48.548;2.704;2023-07-08T04:08:54;100451.84;;;23.33;54.47
74680;BME280;63211;48.548;2.704;2023-07-08T04:11:22;100455.13;;;23.30;54.04
74680;BME280;63211;48.548;2.704;2023-07-08T04:13:50;100465.59;;;23.33;54.53
74680;BME280;63211;48.548;2.704;2023-07-08T04:16:20;100474.91;;;23.27;54.22
74680;BME280;63211;48.548;2.704;2023-07-08T04:18:47;100502.41;;;23.32;54.40
74680;BME280;63211;48.548;2.704;2023-07-08T04:21:16;100498.25;;;23.29;54.47
74680;BME280;63211;48.548;2.704;2023-07-08T04:23:43;100510.91;;;23.30;54.06
74680;BME280;63211;48.548;2.704;2023-07-08T04:26:10;100512.81;;;23.30;54.08
74680;BME280;63211;48.548;2.704;2023-07-08T04:28:37;100507.59;;;23.28;54.13
74680;BME280;63211;48.548;2.704;2023-07-08T04:31:04;100504.00;;;23.28;54.60
74680;BME280;63211;48.548;2.704;2023-07-08T04:33:32;100499.09;;;23.30;54.44
74680;BME280;63211;48.548;2.704;2023-07-08T04:35:59;100497.66;;;23.22;54.72
74680;BME280;63211;48.548;2.704;2023-07-08T04:38:27;100501.19;;;23.18;54.05
74680;BME280;63211;48.548;2.704;2023-07-08T04:40:54;100517.22;;;23.26;54.63
74680;BME280;63211;48.548;2.704;2023-07-08T04:43:22;100527.94;;;23.27;54.03
74680;BME280;63211;48.548;2.704;2023-07-08T04:45:55;100529.84;;;23.27;54.32
74680;BME280;63211;48.548;2.704;2023-07-08T04:48:22;100534.78;;;23.25;54.44
74680;BME280;63211;48.548;2.704;2023-07-08T04:50:52;100545.19;;;23.23;54.14
74680;BME280;63211;48.548;2.704;2023-07-08T04:53:19;100554.84;;;23.25;54.43
74680;BME280;63211;48.548;2.704;2023-07-08T04:55:48;100558.16;;;23.27;54.08
74680;BME280;63211;48.548;2.704;2023-07-08T04:58:17;100577.63;;;23.26;54.03
74680;BME280;63211;48.548;2.704;2023-07-08T05:00:43;100607.84;;;23.26;53.94
74680;BME280;63211;48.548;2.704;2023-07-08T05:03:10;100614.91;;;23.17;54.05
74680;BME280;63211;48.548;2.704;2023-07-08T05:05:37;100638.59;;;23.23;54.63
74680;BME280;63211;48.548;2.704;2023-07-08T05:08:05;100660.31;;;23.24;54.11
74680;BME280;63211;48.548;2.704;2023-07-08T05:10:33;100675.44;;;23.27;54.01
74680;BME280;63211;48.548;2.704;2023-07-08T05:13:01;100680.88;;;23.22;54.01
74680;BME280;63211;48.548;2.704;2023-07-08T05:15:28;100691.34;;;23.25;54.24
74680;BME280;63211;48.548;2.704;2023-07-08T05:17:55;100695.19;;;23.24;54.03
74680;BME280;63211;48.548;2.704;2023-07-08T05:20:22;100691.03;;;23.21;54.04
74680;BME280;63211;48.548;2.704;2023-07-08T05:22:48;100703.44;;;23.24;54.25
74680;BME280;63211;48.548;2.704;2023-07-08T05:25:18;100703.16;;;23.25;53.90
74680;BME280;63211;48.548;2.704;2023-07-08T05:27:45;100702.59;;;23.23;54.38
74680;BME280;63211;48.548;2.704;2023-07-08T05:30:14;100699.59;;;23.25;53.90
74680;BME280;63211;48.548;2.704;2023-07-08T05:32:41;100681.84;;;23.11;54.10
74680;BME280;63211;48.548;2.704;2023-07-08T05:35:08;100697.09;;;23.23;54.44
74680;BME280;63211;48.548;2.704;2023-07-08T05:37:35;100688.28;;;23.21;54.09
74680;BME280;63211;48.548;2.704;2023-07-08T05:40:02;100688.28;;;23.21;54.17
74680;BME280;63211;48.548;2.704;2023-07-08T05:42:31;100696.84;;;23.25;53.98
74680;BME280;63211;48.548;2.704;2023-07-08T05:44:58;100700.09;;;23.22;54.05
74680;BME280;63211;48.548;2.704;2023-07-08T05:47:24;100703.94;;;23.21;54.03
74680;BME280;63211;48.548;2.704;2023-07-08T05:49:51;100698.44;;;23.21;53.85
74680;BME280;63211;48.548;2.704;2023-07-08T05:52:19;100702.84;;;23.22;53.96
74680;BME280;63211;48.548;2.704;2023-07-08T05:54:46;100697.28;;;23.17;54.38
74680;BME280;63211;48.548;2.704;2023-07-08T05:57:13;100707.50;;;23.21;53.74
74680;BME280;63211;48.548;2.704;2023-07-08T05:59:41;100711.09;;;23.22;54.26
74680;BME280;63211;48.548;2.704;2023-07-08T06:02:10;100724.81;;;23.22;54.07
74680;BME280;63211;48.548;2.704;2023-07-08T06:04:36;100725.91;;;23.21;53.93
74680;BME280;63211;48.548;2.704;2023-07-08T06:07:03;100723.41;;;23.19;54.36
74680;BME280;63211;48.548;2.704;2023-07-08T06:09:30;100730.00;;;23.18;54.13
74680;BME280;63211;48.548;2.704;2023-07-08T06:11:57;100731.66;;;23.19;54.47
74680;BME280;63211;48.548;2.704;2023-07-08T06:14:23;100739.66;;;23.21;53.91
74680;BME280;63211;48.548;2.704;2023-07-08T06:16:52;100747.88;;;23.21;54.47
74680;BME280;63211;48.548;2.704;2023-07-08T06:19:20;100748.97;;;23.20;54.47
74680;BME280;63211;48.548;2.704;2023-07-08T06:21:46;100742.91;;;23.18;53.96
74680;BME280;63211;48.548;2.704;2023-07-08T06:24:13;100745.13;;;23.21;54.38
74680;BME280;63211;48.548;2.704;2023-07-08T06:26:39;100752.28;;;23.22;53.83
74680;BME280;63211;48.548;2.704;2023-07-08T06:29:06;100756.38;;;23.19;53.96
74680;BME280;63211;48.548;2.704;2023-07-08T06:31:32;100747.31;;;23.19;54.38
74680;BME280;63211;48.548;2.704;2023-07-08T06:34:01;100742.06;;;23.17;54.44
74680;BME280;63211;48.548;2.704;2023-07-08T06:36:28;100736.81;;;23.16;53.96
74680;BME280;63211;48.548;2.704;2023-07-08T06:38:54;100754.22;;;23.21;54.07
74680;BME280;63211;48.548;2.704;2023-07-08T06:41:21;100742.91;;;23.18;54.67
74680;BME280;63211;48.548;2.704;2023-07-08T06:43:48;100754.53;;;23.25;53.88
74680;BME280;63211;48.548;2.704;2023-07-08T06:46:15;100753.38;;;23.21;54.35
74680;BME280;63211;48.548;2.704;2023-07-08T06:48:41;100755.63;;;23.24;54.08
74680;BME280;63211;48.548;2.704;2023-07-08T06:51:09;100761.09;;;23.24;54.24
74680;BME280;63211;48.548;2.704;2023-07-08T06:53:36;100755.09;;;23.27;53.84
74680;BME280;63211;48.548;2.704;2023-07-08T06:56:03;100754.78;;;23.23;53.90
74680;BME280;63211;48.548;2.704;2023-07-08T06:58:29;100764.72;;;23.29;53.84
74680;BME280;63211;48.548;2.704;2023-07-08T07:00:56;100746.22;;;23.20;53.79
74680;BME280;63211;48.548;2.704;2023-07-08T07:03:23;100763.91;;;23.29;54.24
74680;BME280;63211;48.548;2.704;2023-07-08T07:05:51;100757.63;;;23.34;53.95
74680;BME280;63211;48.548;2.704;2023-07-08T07:08:19;100750.16;;;23.29;53.93
74680;BME280;63211;48.548;2.704;2023-07-08T07:10:45;100756.22;;;23.31;54.22
74680;BME280;63211;48.548;2.704;2023-07-08T07:13:15;100751.00;;;23.29;53.95
74680;BME280;63211;48.548;2.704;2023-07-08T07:15:42;100763.13;;;23.34;53.92
74680;BME280;63211;48.548;2.704;2023-07-08T07:18:09;100758.16;;;23.30;53.71
74680;BME280;63211;48.548;2.704;2023-07-08T07:20:37;100718.38;;;23.11;54.23
74680;BME280;63211;48.548;2.704;2023-07-08T07:23:03;100764.53;;;23.36;53.71
74680;BME280;63211;48.548;2.704;2023-07-08T07:25:32;100755.72;;;23.34;53.74
74680;BME280;63211;48.548;2.704;2023-07-08T07:27:58;100757.88;;;23.32;53.89
74680;BME280;63211;48.548;2.704;2023-07-08T07:30:25;100776.34;;;23.37;53.67
74680;BME280;63211;48.548;2.704;2023-07-08T07:32:52;100771.13;;;23.35;53.82
74680;BME280;63211;48.548;2.704;2023-07-08T07:35:18;100775.28;;;23.38;53.69
74680;BME280;63211;48.548;2.704;2023-07-08T07:37:45;100771.19;;;23.40;53.97
74680;BME280;63211;48.548;2.704;2023-07-08T07:40:13;100762.03;;;23.35;53.87
74680;BME280;63211;48.548;2.704;2023-07-08T07:42:43;100767.59;;;23.40;54.13
74680;BME280;63211;48.548;2.704;2023-07-08T07:45:10;100770.09;;;23.41;53.68
74680;BME280;63211;48.548;2.704;2023-07-08T07:47:38;100771.50;;;23.44;53.70
74680;BME280;63211;48.548;2.704;2023-07-08T07:50:06;100778.34;;;23.41;53.83
74680;BME280;63211;48.548;2.704;2023-07-08T07:52:33;100769.00;;;23.42;54.05
74680;BME280;63211;48.548;2.704;2023-07-08T07:55:03;100768.19;;;23.42;54.15
74680;BME280;63211;48.548;2.704;2023-07-08T07:57:29;100773.16;;;23.45;53.90
74680;BME280;63211;48.548;2.704;2023-07-08T07:59:57;100776.75;;;23.45;53.64
74680;BME280;63211;48.548;2.704;2023-07-08T08:02:24;100777.00;;;23.44;53.91
74680;BME280;63211;48.548;2.704;2023-07-08T08:04:50;100785.81;;;23.46;53.94
74680;BME280;63211;48.548;2.704;2023-07-08T08:07:17;100789.66;;;23.45;53.57
74680;BME280;63211;48.548;2.704;2023-07-08T08:09:43;100788.56;;;23.46;53.66
74680;BME280;63211;48.548;2.704;2023-07-08T08:12:11;100788.59;;;23.51;54.21
74680;BME280;63211;48.548;2.704;2023-07-08T08:14:38;100788.69;;;23.56;53.73
74680;BME280;63211;48.548;2.704;2023-07-08T08:17:06;100778.53;;;23.56;54.19
74680;BME280;63211;48.548;2.704;2023-07-08T08:19:32;100789.16;;;23.75;54.06
74680;BME280;63211;48.548;2.704;2023-07-08T08:21:59;100785.66;;;23.79;54.25
74680;BME280;63211;48.548;2.704;2023-07-08T08:24:26;100793.44;;;23.87;54.02
74680;BME280;63211;48.548;2.704;2023-07-08T08:26:52;100784.09;;;23.88;54.53
74680;BME280;63211;48.548;2.704;2023-07-08T08:29:19;100803.19;;;24.00;54.47
74680;BME280;63211;48.548;2.704;2023-07-08T08:31:46;100796.63;;;24.06;54.50
74680;BME280;63211;48.548;2.704;2023-07-08T08:34:14;100799.69;;;24.10;54.66
74680;BME280;63211;48.548;2.704;2023-07-08T08:36:40;100804.38;;;24.09;55.03
74680;BME280;63211;48.548;2.704;2023-07-08T08:39:08;100808.78;;;24.10;54.77
74680;BME280;63211;48.548;2.704;2023-07-08T08:41:37;100817.56;;;24.12;54.64
74680;BME280;63211;48.548;2.704;2023-07-08T08:44:05;100822.34;;;24.22;54.36
74680;BME280;63211;48.548;2.704;2023-07-08T08:46:38;100821.03;;;24.24;54.37
74680;BME280;63211;48.548;2.704;2023-07-08T08:49:16;100822.69;;;24.25;54.77
74680;BME280;63211;48.548;2.704;2023-07-08T08:51:44;100825.19;;;24.27;54.61
74680;BME280;63211;48.548;2.704;2023-07-08T08:54:11;100826.59;;;24.29;54.37
74680;BME280;63211;48.548;2.704;2023-07-08T08:56:43;100824.13;;;24.33;54.41
74680;BME280;63211;48.548;2.704;2023-07-08T08:59:20;100818.34;;;24.35;54.61
74680;BME280;63211;48.548;2.704;2023-07-08T09:01:50;100825.25;;;24.37;54.58
74680;BME280;63211;48.548;2.704;2023-07-08T09:04:22;100821.16;;;24.40;54.76
74680;BME280;63211;48.548;2.704;2023-07-08T09:06:52;100824.47;;;24.42;54.48
74680;BME280;63211;48.548;2.704;2023-07-08T09:09:29;100818.47;;;24.45;54.81
74680;BME280;63211;48.548;2.704;2023-07-08T09:12:01;100821.22;;;24.45;54.57
74680;BME280;63211;48.548;2.704;2023-07-08T09:14:31;100811.03;;;24.45;54.47
74680;BME280;63211;48.548;2.704;2023-07-08T09:17:14;100813.25;;;24.48;54.44
74680;BME280;63211;48.548;2.704;2023-07-08T09:19:44;100809.69;;;24.53;54.73
74680;BME280;63211;48.548;2.704;2023-07-08T09:22:16;100795.38;;;24.51;54.57
74680;BME280;63211;48.548;2.704;2023-07-08T09:24:45;100800.34;;;24.54;54.59
74680;BME280;63211;48.548;2.704;2023-07-08T09:27:14;100803.97;;;24.59;54.57
74680;BME280;63211;48.548;2.704;2023-07-08T09:29:41;100789.59;;;24.47;54.53
74680;BME280;63211;48.548;2.704;2023-07-08T09:32:18;100814.72;;;24.61;54.65
74680;BME280;63211;48.548;2.704;2023-07-08T09:34:50;100813.09;;;24.65;54.39
74680;BME280;63211;48.548;2.704;2023-07-08T09:37:25;100809.25;;;24.66;54.55
74680;BME280;63211;48.548;2.704;2023-07-08T09:39:53;100807.91;;;24.69;54.41
74680;BME280;63211;48.548;2.704;2023-07-08T09:42:22;100807.63;;;24.70;54.41
74680;BME280;63211;48.548;2.704;2023-07-08T09:44:55;100803.53;;;24.73;54.32
74680;BME280;63211;48.548;2.704;2023-07-08T09:47:25;100806.53;;;24.71;53.95
74680;BME280;63211;48.548;2.704;2023-07-08T09:49:55;100794.91;;;24.64;54.40
74680;BME280;63211;48.548;2.704;2023-07-08T09:52:21;100808.47;;;24.76;54.11
74680;BME280;63211;48.548;2.704;2023-07-08T09:54:49;100803.53;;;24.78;54.27
74680;BME280;63211;48.548;2.704;2023-07-08T09:57:24;100809.88;;;24.78;54.05
74680;BME280;63211;48.548;2.704;2023-07-08T09:59:53;100781.47;;;24.67;53.92
74680;BME280;63211;48.548;2.704;2023-07-08T10:02:30;100799.13;;;24.77;54.05
74680;BME280;63211;48.548;2.704;2023-07-08T10:05:01;100796.63;;;24.75;54.05
74680;BME280;63211;48.548;2.704;2023-07-08T10:07:29;100799.72;;;24.84;54.25
74680;BME280;63211;48.548;2.704;2023-07-08T10:09:59;100795.03;;;24.84;54.54
74680;BME280;63211;48.548;2.704;2023-07-08T10:12:28;100807.75;;;24.90;53.84
74680;BME280;63211;48.548;2.704;2023-07-08T10:14:59;100804.75;;;24.92;54.00
74680;BME280;63211;48.548;2.704;2023-07-08T10:17:28;100787.66;;;24.90;53.71
74680;BME280;63211;48.548;2.704;2023-07-08T10:19:55;100796.25;;;24.98;53.63
74680;BME280;63211;48.548;2.704;2023-07-08T10:22:29;100798.16;;;24.98;53.65
74680;BME280;63211;48.548;2.704;2023-07-08T10:25:08;100790.75;;;24.98;53.31
74680;BME280;63211;48.548;2.704;2023-07-08T10:27:40;100788.81;;;24.99;53.53
74680;BME280;63211;48.548;2.704;2023-07-08T10:30:19;100784.41;;;24.98;53.56
74680;BME280;63211;48.548;2.704;2023-07-08T10:32:51;100783.03;;;25.00;53.33
74680;BME280;63211;48.548;2.704;2023-07-08T10:35:25;100780.81;;;24.97;53.40
74680;BME280;63211;48.548;2.704;2023-07-08T10:40:49;100793.50;;;24.98;53.77
74680;BME280;63211;48.548;2.704;2023-07-08T10:43:27;100784.09;;;24.94;53.61
74680;BME280;63211;48.548;2.704;2023-07-08T10:46:06;100784.09;;;24.94;53.39
74680;BME280;63211;48.548;2.704;2023-07-08T10:48:52;100793.19;;;24.95;53.43
74680;BME280;63211;48.548;2.704;2023-07-08T10:51:26;100787.69;;;24.95;53.51
74680;BME280;63211;48.548;2.704;2023-07-08T10:56:59;100777.75;;;24.94;53.84
74680;BME280;63211;48.548;2.704;2023-07-08T10:59:45;100773.34;;;24.93;53.83
74680;BME280;63211;48.548;2.704;2023-07-08T11:05:19;100782.44;;;24.93;53.69
74680;BME280;63211;48.548;2.704;2023-07-08T11:07:51;100782.44;;;24.93;53.65
74680;BME280;63211;48.548;2.704;2023-07-08T11:10:24;100779.69;;;24.93;53.65
74680;BME280;63211;48.548;2.704;2023-07-08T11:12:57;100787.94;;;24.93;53.99
74680;BME280;63211;48.548;2.704;2023-07-08T11:15:29;100789.03;;;24.92;53.85
74680;BME280;63211;48.548;2.704;2023-07-08T11:18:00;100766.94;;;24.82;53.76
74680;BME280;63211;48.548;2.704;2023-07-08T11:20:36;100772.50;;;24.87;53.80
74680;BME280;63211;48.548;2.704;2023-07-08T11:23:10;100787.38;;;24.91;53.54
74680;BME280;63211;48.548;2.704;2023-07-08T11:25:42;100782.44;;;24.93;53.75
74680;BME280;63211;48.548;2.704;2023-07-08T11:28:13;100775.03;;;24.99;54.11
74680;BME280;63211;48.548;2.704;2023-07-08T11:30:44;100768.69;;;24.98;54.44
74680;BME280;63211;48.548;2.704;2023-07-08T11:33:12;100769.25;;;25.00;53.99
74680;BME280;63211;48.548;2.704;2023-07-08T11:35:42;100770.38;;;24.99;54.31
74680;BME280;63211;48.548;2.704;2023-07-08T11:38:13;100775.03;;;24.99;54.03
74680;BME280;63211;48.548;2.704;2023-07-08T11:40:55;100761.81;;;24.96;54.34
74680;BME280;63211;48.548;2.704;2023-07-08T11:43:24;100771.47;;;24.98;54.42
74680;BME280;63211;48.548;2.704;2023-07-08T11:45:55;100767.31;;;24.96;54.21
74680;BME280;63211;48.548;2.704;2023-07-08T11:48:25;100758.75;;;24.92;54.57
74680;BME280;63211;48.548;2.704;2023-07-08T11:50:54;100764.59;;;25.01;54.25
74680;BME280;63211;48.548;2.704;2023-07-08T11:53:38;100768.41;;;24.95;54.05
74680;BME280;63211;48.548;2.704;2023-07-08T11:56:22;100749.91;;;24.90;54.30
74680;BME280;63211;48.548;2.704;2023-07-08T11:58:52;100765.06;;;24.88;54.30
74680;BME280;63211;48.548;2.704;2023-07-08T12:01:25;100759.81;;;24.86;54.58
74680;BME280;63211;48.548;2.704;2023-07-08T12:03:55;100749.63;;;24.87;54.62
74680;BME280;63211;48.548;2.704;2023-07-08T12:06:47;100752.38;;;24.87;54.52
74680;BME280;63211;48.548;2.704;2023-07-08T12:09:22;100743.28;;;24.86;54.31
74680;BME280;63211;48.548;2.704;2023-07-08T12:11:55;100743.56;;;24.85;54.24
74680;BME280;63211;48.548;2.704;2023-07-08T12:14:23;100744.94;;;24.87;54.45
74680;BME280;63211;48.548;2.704;2023-07-08T12:16:50;100744.94;;;24.87;54.39
74680;BME280;63211;48.548;2.704;2023-07-08T12:19:18;100746.88;;;24.87;54.33
74680;BME280;63211;48.548;2.704;2023-07-08T12:21:47;100741.34;;;24.87;54.43
74680;BME280;63211;48.548;2.704;2023-07-08T12:24:14;100748.78;;;24.86;54.38
74680;BME280;63211;48.548;2.704;2023-07-08T12:26:41;100732.50;;;24.80;54.34
74680;BME280;63211;48.548;2.704;2023-07-08T12:29:11;100742.25;;;24.97;54.41
74680;BME280;63211;48.548;2.704;2023-07-08T12:31:39;100740.06;;;24.99;54.31
74680;BME280;63211;48.548;2.704;2023-07-08T12:34:11;100744.19;;;24.97;54.37
74680;BME280;63211;48.548;2.704;2023-07-08T12:36:41;100728.13;;;24.84;54.61
74680;BME280;63211;48.548;2.704;2023-07-08T12:39:11;100739.72;;;24.91;54.92
74680;BME280;63211;48.548;2.704;2023-07-08T12:41:41;100731.75;;;24.89;55.00
74680;BME280;63211;48.548;2.704;2023-07-08T12:44:16;100739.44;;;24.87;55.10
74680;BME280;63211;48.548;2.704;2023-07-08T12:46:45;100728.63;;;24.76;54.68
74680;BME280;63211;48.548;2.704;2023-07-08T12:49:13;100742.75;;;24.89;54.92
74680;BME280;63211;48.548;2.704;2023-07-08T12:51:42;100745.25;;;24.91;54.56
74680;BME280;63211;48.548;2.704;2023-07-08T12:54:11;100749.91;;;24.90;54.78
74680;BME280;63211;48.548;2.704;2023-07-08T12:56:39;100744.41;;;24.90;54.80
74680;BME280;63211;48.548;2.704;2023-07-08T12:59:06;100727.59;;;24.87;54.57
74680;BME280;63211;48.548;2.704;2023-07-08T13:01:35;100733.97;;;24.92;54.64
74680;BME280;63211;48.548;2.704;2023-07-08T13:04:05;100738.91;;;24.90;54.52
74680;BME280;63211;48.548;2.704;2023-07-08T13:06:34;100707.97;;;24.78;54.43
74680;BME280;63211;48.548;2.704;2023-07-08T13:09:06;100740.81;;;24.90;54.54